createdAt,value
2022-07-29T00:02:00.035Z,3.88
2022-07-29T00:05:02.548Z,3.53
2022-07-29T00:08:08.205Z,3.57
2022-07-29T00:11:12.704Z,3.47
2022-07-29T00:14:14.904Z,3.50
2022-07-29T00:17:19.080Z,3.38
2022-07-29T00:20:21.387Z,3.38
2022-07-29T00:23:23.362Z,3.43
2022-07-29T00:26:25.599Z,3.35
2022-07-29T00:29:35.198Z,3.13
2022-07-29T00:32:37.408Z,3.53
2022-07-29T00:35:45.318Z,3.30
2022-07-29T00:38:49.447Z,3.20
2022-07-29T00:41:51.841Z,3.40
2022-07-29T00:44:55.056Z,2.90
2022-07-29T00:47:57.470Z,3.20
2022-07-29T00:51:02.356Z,3.00
2022-07-29T00:54:05.931Z,3.00
2022-07-29T00:57:11.457Z,3.25
2022-07-29T01:00:18.592Z,3.17
2022-07-29T01:03:20.654Z,2.88
2022-07-29T01:06:23.638Z,3.13
2022-07-29T01:09:43.158Z,3.03
2022-07-29T01:12:49.826Z,3.00
2022-07-29T01:16:00.280Z,3.22
2022-07-29T01:19:13.967Z,3.22
2022-07-29T01:23:00.377Z,3.00
2022-07-29T01:26:20.382Z,3.40
2022-07-29T01:29:42.345Z,2.78
2022-07-29T01:32:51.095Z,3.08
2022-07-29T01:35:53.133Z,3.03
2022-07-29T01:39:07.141Z,3.00
2022-07-29T01:42:12.144Z,3.00
2022-07-29T01:45:22.465Z,3.00
2022-07-29T01:48:28.103Z,3.13
2022-07-29T01:51:37.089Z,3.13
2022-07-29T01:54:46.678Z,3.10
2022-07-29T01:57:50.736Z,3.40
2022-07-29T02:00:54.703Z,3.50
2022-07-29T02:03:59.334Z,3.65
2022-07-29T02:07:08.102Z,3.17
2022-07-29T02:10:12.995Z,3.25
2022-07-29T02:13:17.810Z,3.10
2022-07-29T02:16:23.742Z,3.20
2022-07-29T02:19:28.356Z,3.35
2022-07-29T02:22:34.534Z,3.90
2022-07-29T02:25:38.464Z,3.22
2022-07-29T02:28:41.688Z,3.27
2022-07-29T02:31:48.206Z,3.38
2022-07-29T02:34:50.955Z,3.58
2022-07-29T02:38:12.648Z,3.90
2022-07-29T02:41:19.454Z,3.35
2022-07-29T02:44:27.332Z,4.00
2022-07-29T02:47:48.072Z,3.50
2022-07-29T02:50:54.342Z,3.83
2022-07-29T02:53:57.983Z,3.95
2022-07-29T02:57:07.313Z,4.38
2022-07-29T03:00:10.878Z,3.90
2022-07-29T03:03:17.476Z,3.67
2022-07-29T03:06:31.063Z,4.00
2022-07-29T03:09:42.867Z,3.72
2022-07-29T03:12:45.246Z,4.13
2022-07-29T03:15:48.548Z,3.87
2022-07-29T03:18:51.585Z,4.43
2022-07-29T03:21:54.070Z,4.38
2022-07-29T03:24:56.074Z,3.65
2022-07-29T03:27:58.025Z,4.45
2022-07-29T03:31:00.025Z,4.20
2022-07-29T03:34:02.031Z,4.15
2022-07-29T03:37:04.041Z,4.20
2022-07-29T03:40:09.710Z,4.10
2022-07-29T03:43:13.521Z,3.90
2022-07-29T03:46:18.888Z,3.83
2022-07-29T03:49:22.794Z,4.20
2022-07-29T03:52:24.881Z,3.90
2022-07-29T03:55:29.254Z,3.30
2022-07-29T03:58:32.457Z,4.40
2022-07-29T04:01:36.396Z,3.23
2022-07-29T04:04:38.655Z,4.03
2022-07-29T04:07:50.152Z,3.85
2022-07-29T04:10:53.431Z,3.80
2022-07-29T04:13:55.337Z,4.18
2022-07-29T04:16:57.277Z,4.03
2022-07-29T04:19:59.254Z,4.20
2022-07-29T04:23:01.310Z,4.28
2022-07-29T04:26:03.285Z,4.22
2022-07-29T04:29:05.347Z,4.15
2022-07-29T04:32:07.343Z,4.20
2022-07-29T04:35:09.403Z,4.78
2022-07-29T04:38:15.866Z,4.35
2022-07-29T04:41:20.789Z,4.53
2022-07-29T04:44:28.348Z,4.65
2022-07-29T04:47:31.067Z,4.33
2022-07-29T04:50:33.485Z,4.97
2022-07-29T04:53:35.488Z,5.25
2022-07-29T04:56:37.525Z,4.90
2022-07-29T04:59:39.490Z,5.45
2022-07-29T05:02:41.497Z,5.00
2022-07-29T05:05:43.625Z,5.05
2022-07-29T05:08:45.694Z,5.13
2022-07-29T05:11:47.763Z,4.70
2022-07-29T05:14:49.841Z,4.95
2022-07-29T05:17:51.809Z,4.53
2022-07-29T05:20:53.852Z,5.07
2022-07-29T05:23:55.912Z,5.03
2022-07-29T05:26:57.832Z,4.70
2022-07-29T05:29:59.825Z,4.38
2022-07-29T05:33:01.869Z,4.37
2022-07-29T05:36:07.986Z,4.50
2022-07-29T05:39:10.226Z,5.03
2022-07-29T05:42:12.156Z,5.10
2022-07-29T05:45:14.207Z,4.63
2022-07-29T05:48:16.323Z,4.33
2022-07-29T05:51:18.449Z,4.60
2022-07-29T05:54:20.453Z,4.60
2022-07-29T05:57:24.679Z,4.25
2022-07-29T06:00:26.873Z,4.57
2022-07-29T06:03:31.534Z,4.53
2022-07-29T06:06:34.652Z,4.57
2022-07-29T06:09:36.721Z,4.20
2022-07-29T06:12:38.790Z,4.43
2022-07-29T06:15:40.820Z,4.68
2022-07-29T06:18:43.241Z,4.60
2022-07-29T06:21:47.338Z,4.57
2022-07-29T06:24:49.388Z,4.30
2022-07-29T06:27:51.593Z,4.53
2022-07-29T06:30:53.759Z,4.38
2022-07-29T06:33:56.034Z,4.47
2022-07-29T06:36:57.995Z,4.38
2022-07-29T06:40:20.107Z,4.38
2022-07-29T06:43:22.059Z,4.13
2022-07-29T06:46:24.987Z,4.28
2022-07-29T06:49:28.658Z,4.13
2022-07-29T06:52:30.835Z,4.57
2022-07-29T06:55:33.523Z,4.70
2022-07-29T06:58:36.213Z,4.45
2022-07-29T07:01:42.803Z,4.93
2022-07-29T07:04:44.949Z,4.60
2022-07-29T07:07:46.950Z,4.82
2022-07-29T07:10:49.463Z,4.53
2022-07-29T07:13:51.635Z,4.93
2022-07-29T07:16:53.900Z,4.50
2022-07-29T07:19:56.840Z,4.53
2022-07-29T07:22:59.103Z,4.65
2022-07-29T07:26:01.167Z,4.63
2022-07-29T07:29:03.237Z,4.95
2022-07-29T07:32:05.641Z,4.38
2022-07-29T07:35:09.105Z,4.70
2022-07-29T07:38:11.232Z,3.97
2022-07-29T07:41:13.324Z,4.60
2022-07-29T07:44:16.237Z,4.60
2022-07-29T07:47:20.859Z,4.47
2022-07-29T07:50:24.522Z,4.13
2022-07-29T07:53:26.619Z,4.13
2022-07-29T07:56:33.335Z,4.20
2022-07-29T07:59:37.207Z,4.78
2022-07-29T08:02:40.515Z,4.60
2022-07-29T08:05:42.689Z,4.47
2022-07-29T08:08:44.838Z,4.00
2022-07-29T08:11:51.608Z,4.45
2022-07-29T08:14:55.060Z,4.50
2022-07-29T08:17:57.026Z,4.60
2022-07-29T08:20:59.515Z,4.10
2022-07-29T08:24:20.108Z,4.78
2022-07-29T08:27:42.474Z,4.20
2022-07-29T08:30:44.200Z,4.00
2022-07-29T08:33:46.183Z,4.50
2022-07-29T08:36:50.844Z,4.50
2022-07-29T08:39:53.613Z,4.07
2022-07-29T08:42:55.880Z,3.95
2022-07-29T08:45:57.992Z,4.00
2022-07-29T08:49:00.064Z,4.57
2022-07-29T08:52:02.354Z,4.20
2022-07-29T08:55:06.535Z,3.97
2022-07-29T08:58:09.713Z,3.90
2022-07-29T09:01:17.172Z,4.05
2022-07-29T09:04:22.600Z,3.58
2022-07-29T09:07:24.623Z,3.83
2022-07-29T09:10:37.137Z,3.92
2022-07-29T09:13:39.169Z,3.50
2022-07-29T09:16:53.147Z,3.67
2022-07-29T09:20:10.310Z,3.42
2022-07-29T09:23:12.810Z,3.20
2022-07-29T09:26:30.306Z,3.17
2022-07-29T09:29:36.143Z,3.20
2022-07-29T09:33:04.405Z,3.53
2022-07-29T09:36:08.454Z,3.45
2022-07-29T09:39:11.318Z,3.30
2022-07-29T09:42:14.356Z,3.30
2022-07-29T09:45:33.182Z,3.20
2022-07-29T09:48:35.261Z,3.05
2022-07-29T09:51:38.706Z,3.25
2022-07-29T09:54:40.923Z,3.60
2022-07-29T09:57:43.379Z,3.58
2022-07-29T10:00:47.079Z,3.67
2022-07-29T10:03:53.298Z,2.90
2022-07-29T10:07:04.821Z,2.90
2022-07-29T10:10:07.952Z,2.90
2022-07-29T10:13:15.803Z,2.92
2022-07-29T10:16:19.037Z,3.15
2022-07-29T10:19:21.377Z,2.78
2022-07-29T10:22:50.777Z,2.70
2022-07-29T10:25:46.952Z,2.90
2022-07-29T10:28:49.041Z,2.60
2022-07-29T10:32:16.022Z,3.00
2022-07-29T10:35:39.028Z,2.75
2022-07-29T10:38:40.941Z,2.90
2022-07-29T10:41:58.933Z,2.90
2022-07-29T10:45:02.722Z,2.47
2022-07-29T10:48:07.945Z,3.10
2022-07-29T10:51:10.788Z,2.63
2022-07-29T10:54:14.988Z,2.80
2022-07-29T10:57:53.269Z,2.67
2022-07-29T11:00:54.937Z,2.80
2022-07-29T11:03:58.360Z,2.78
2022-07-29T11:07:03.809Z,2.60
2022-07-29T11:10:18.854Z,2.60
2022-07-29T11:13:49.029Z,2.80
2022-07-29T11:17:03.074Z,2.55
2022-07-29T11:20:34.828Z,2.97
2022-07-29T11:23:42.813Z,2.78
2022-07-29T11:26:45.241Z,2.83
2022-07-29T11:33:52.264Z,2.83
2022-07-29T11:37:10.262Z,2.72
2022-07-29T11:40:14.542Z,2.90
2022-07-29T11:43:47.412Z,3.38
2022-07-29T11:46:53.886Z,2.67
2022-07-29T11:50:00.534Z,2.85
2022-07-29T11:53:11.005Z,2.70
2022-07-29T11:56:17.055Z,3.00
2022-07-29T11:59:20.601Z,2.80
2022-07-29T12:05:48.137Z,3.00
2022-07-29T12:07:01.387Z,2.80
2022-07-29T12:08:50.505Z,2.97
2022-07-29T12:12:05.285Z,3.00
2022-07-29T12:15:22.368Z,2.80
2022-07-29T12:18:25.344Z,2.77
2022-07-29T12:21:28.785Z,2.90
2022-07-29T12:24:45.249Z,2.85
2022-07-29T12:27:48.404Z,3.10
2022-07-29T12:30:51.825Z,2.42
2022-07-29T12:33:54.841Z,3.07
2022-07-29T12:36:57.679Z,2.63
2022-07-29T12:40:00.079Z,3.08
2022-07-29T12:43:14.304Z,2.97
2022-07-29T12:46:16.494Z,2.85
2022-07-29T12:49:24.696Z,2.63
2022-07-29T12:52:26.807Z,2.92
2022-07-29T12:55:49.929Z,2.85
2022-07-29T12:58:52.719Z,3.08
2022-07-29T13:01:54.736Z,2.75
2022-07-29T13:05:01.483Z,2.70
2022-07-29T13:08:20.134Z,2.97
2022-07-29T13:11:51.360Z,3.17
2022-07-29T13:14:53.516Z,2.90
2022-07-29T13:17:55.572Z,3.05
2022-07-29T13:20:58.397Z,2.70
2022-07-29T13:24:00.653Z,2.50
2022-07-29T13:27:05.601Z,2.47
2022-07-29T13:30:10.102Z,2.70
2022-07-29T13:33:12.762Z,2.90
2022-07-29T13:36:14.961Z,3.00
2022-07-29T13:39:16.999Z,2.60
2022-07-29T13:42:19.032Z,2.58
2022-07-29T13:45:21.030Z,3.00
2022-07-29T13:48:22.990Z,2.83
2022-07-29T13:51:25.262Z,2.80
2022-07-29T13:54:27.187Z,2.60
2022-07-29T13:57:29.934Z,2.90
2022-07-29T14:00:32.362Z,2.63
2022-07-29T14:03:34.560Z,3.00
2022-07-29T14:06:37.152Z,2.70
2022-07-29T14:09:42.501Z,2.63
2022-07-29T14:12:44.580Z,3.00
2022-07-29T14:15:46.570Z,2.83
2022-07-29T14:18:48.680Z,2.97
2022-07-29T14:21:50.787Z,3.37
2022-07-29T14:24:53.526Z,3.30
2022-07-29T14:27:55.621Z,3.15
2022-07-29T14:31:00.671Z,3.00
2022-07-29T14:34:03.073Z,2.97
2022-07-29T14:37:09.536Z,3.10
2022-07-29T14:40:18.568Z,2.95
2022-07-29T14:43:20.605Z,3.15
2022-07-29T14:46:23.922Z,2.97
2022-07-29T14:49:26.728Z,3.33
2022-07-29T14:52:28.717Z,3.57
2022-07-29T14:55:30.942Z,3.00
2022-07-29T14:58:32.984Z,3.58
2022-07-29T15:01:35.290Z,3.15
2022-07-29T15:04:37.271Z,3.22
2022-07-29T15:07:39.257Z,3.23
2022-07-29T15:10:41.323Z,3.15
2022-07-29T15:13:43.277Z,3.30
2022-07-29T15:16:46.672Z,3.35
2022-07-29T15:19:50.223Z,3.30
2022-07-29T15:22:52.198Z,3.30
2022-07-29T15:25:54.202Z,3.20
2022-07-29T15:28:58.938Z,3.47
2022-07-29T15:32:06.148Z,3.67
2022-07-29T15:35:08.314Z,3.08
2022-07-29T15:38:10.399Z,3.20
2022-07-29T15:41:15.320Z,3.20
2022-07-29T15:44:17.776Z,3.58
2022-07-29T15:47:19.761Z,2.70
2022-07-29T15:50:22.103Z,3.35
2022-07-29T15:53:24.116Z,3.30
2022-07-29T15:56:26.200Z,3.17
2022-07-29T15:59:28.317Z,3.10
2022-07-29T16:02:30.229Z,3.38
2022-07-29T16:05:32.237Z,3.53
2022-07-29T16:08:34.325Z,3.20
2022-07-29T16:11:36.745Z,3.38
2022-07-29T16:14:38.783Z,3.50
2022-07-29T16:17:40.860Z,3.10
2022-07-29T16:20:42.890Z,3.17
2022-07-29T16:23:45.431Z,3.10
2022-07-29T16:26:47.493Z,3.42
2022-07-29T16:29:50.414Z,3.28
2022-07-29T16:32:52.466Z,3.17
2022-07-29T16:35:55.714Z,3.70
2022-07-29T16:38:57.997Z,3.57
2022-07-29T16:42:02.301Z,3.58
2022-07-29T16:45:06.665Z,3.60
2022-07-29T16:48:08.755Z,3.28
2022-07-29T16:51:14.396Z,3.10
2022-07-29T16:54:16.875Z,3.53
2022-07-29T16:57:18.871Z,4.38
2022-07-29T17:00:21.492Z,3.92
2022-07-29T17:03:23.457Z,3.28
2022-07-29T17:06:25.641Z,3.17
2022-07-29T17:09:27.655Z,3.23
2022-07-29T17:12:29.675Z,3.30
2022-07-29T17:15:31.670Z,3.67
2022-07-29T17:18:38.516Z,3.10
2022-07-29T17:21:48.377Z,3.42
2022-07-29T17:24:51.534Z,3.53
2022-07-29T17:28:00.580Z,3.55
2022-07-29T17:31:03.016Z,3.28
2022-07-29T17:34:06.539Z,3.25
2022-07-29T17:37:09.782Z,3.72
2022-07-29T17:40:12.124Z,3.83
2022-07-29T17:43:14.103Z,3.53
2022-07-29T17:46:17.809Z,4.50
2022-07-29T17:49:19.904Z,3.90
2022-07-29T17:52:21.906Z,3.67
2022-07-29T17:55:23.945Z,3.70
2022-07-29T17:58:26.276Z,3.97
2022-07-29T18:01:28.578Z,4.00
2022-07-29T18:04:31.593Z,3.78
2022-07-29T18:07:33.824Z,4.32
2022-07-29T18:10:36.451Z,4.27
2022-07-29T18:13:39.256Z,4.10
2022-07-29T18:16:41.356Z,4.22
2022-07-29T18:19:43.395Z,4.97
2022-07-29T18:22:45.376Z,4.55
2022-07-29T18:25:47.463Z,3.77
2022-07-29T18:28:49.449Z,4.20
2022-07-29T18:31:51.537Z,3.85
2022-07-29T18:34:53.452Z,3.58
2022-07-29T18:38:01.284Z,4.00
2022-07-29T18:41:04.873Z,4.07
2022-07-29T18:44:06.933Z,4.07
2022-07-29T18:47:11.325Z,5.93
2022-07-29T18:50:14.713Z,4.40
2022-07-29T18:53:17.850Z,4.20
2022-07-29T18:56:20.003Z,5.00
2022-07-29T18:59:22.077Z,4.65
2022-07-29T19:02:24.589Z,3.83
2022-07-29T19:05:26.728Z,3.85
2022-07-29T19:08:28.776Z,4.30
2022-07-29T19:11:30.846Z,4.27
2022-07-29T19:14:32.955Z,4.20
2022-07-29T19:17:35.020Z,3.85
2022-07-29T19:20:38.405Z,4.60
2022-07-29T19:24:03.820Z,4.78
2022-07-29T19:27:03.000Z,4.60
2022-07-29T19:30:07.053Z,4.30
2022-07-29T19:33:09.471Z,4.63
2022-07-29T19:36:11.585Z,6.00
2022-07-29T19:39:15.339Z,6.43
2022-07-29T19:42:17.402Z,5.20
2022-07-29T19:45:24.856Z,4.18
2022-07-29T19:48:26.981Z,3.92
2022-07-29T19:51:29.041Z,4.30
2022-07-29T19:54:31.262Z,4.60
2022-07-29T19:57:40.794Z,4.47
2022-07-29T20:00:43.595Z,4.45
2022-07-29T20:03:46.629Z,5.20
2022-07-29T20:06:49.541Z,4.63
2022-07-29T20:09:54.859Z,4.50
2022-07-29T20:12:59.103Z,4.93
2022-07-29T20:16:02.138Z,4.60
2022-07-29T20:19:04.261Z,5.38
2022-07-29T20:22:06.983Z,5.00
2022-07-29T20:25:09.993Z,5.20
2022-07-29T20:28:13.127Z,4.50
2022-07-29T20:31:17.572Z,5.40
2022-07-29T20:34:20.396Z,5.13
2022-07-29T20:37:22.923Z,5.00
2022-07-29T20:40:26.874Z,5.85
2022-07-29T20:43:29.785Z,5.50
2022-07-29T20:46:32.802Z,5.65
2022-07-29T20:49:36.528Z,5.75
2022-07-29T20:52:41.130Z,5.40
2022-07-29T20:55:43.472Z,5.47
2022-07-29T20:58:45.702Z,5.10
2022-07-29T21:01:47.813Z,5.43
2022-07-29T21:04:49.846Z,5.45
2022-07-29T21:07:55.337Z,5.80
2022-07-29T21:10:59.833Z,5.32
2022-07-29T21:14:01.856Z,5.37
2022-07-29T21:17:07.554Z,5.10
2022-07-29T21:20:09.997Z,5.75
2022-07-29T21:23:12.219Z,5.13
2022-07-29T21:26:14.362Z,5.40
2022-07-29T21:29:16.402Z,5.27
2022-07-29T21:32:29.490Z,6.00
2022-07-29T21:38:54.470Z,5.43
2022-07-29T21:41:56.637Z,5.38
2022-07-29T21:44:58.627Z,5.13
2022-07-29T21:48:00.696Z,5.97
2022-07-29T21:51:02.843Z,5.55
2022-07-29T21:54:04.979Z,4.90
2022-07-29T21:57:08.940Z,6.25
2022-07-29T22:00:15.841Z,5.67
2022-07-29T22:03:17.976Z,5.07
2022-07-29T22:06:20.029Z,5.55
2022-07-29T22:09:22.109Z,5.95
2022-07-29T22:12:24.156Z,5.75
2022-07-29T22:15:27.163Z,5.47
2022-07-29T22:18:29.115Z,5.65
2022-07-29T22:21:31.155Z,5.00
2022-07-29T22:24:33.147Z,5.15
2022-07-29T22:27:35.299Z,4.95
2022-07-29T22:30:37.682Z,5.10
2022-07-29T22:33:39.803Z,4.15
2022-07-29T22:36:41.859Z,4.47
2022-07-29T22:39:44.030Z,4.38
2022-07-29T22:42:46.180Z,4.00
2022-07-29T22:45:48.330Z,4.50
2022-07-29T22:48:50.458Z,4.20
2022-07-29T22:51:56.393Z,4.22
2022-07-29T22:54:58.338Z,4.25
2022-07-29T22:58:00.245Z,4.10
2022-07-29T23:01:02.266Z,4.50
2022-07-29T23:04:04.466Z,4.03
2022-07-29T23:07:06.606Z,4.50
2022-07-29T23:10:09.104Z,4.25
2022-07-29T23:13:11.967Z,4.80
2022-07-29T23:16:14.162Z,4.47
2022-07-29T23:19:28.220Z,4.20
2022-07-29T23:22:30.163Z,4.63
2022-07-29T23:25:32.126Z,4.68
2022-07-29T23:28:34.140Z,4.07
2022-07-29T23:31:36.270Z,4.10
2022-07-29T23:34:44.200Z,5.07
2022-07-29T23:37:46.184Z,4.63
2022-07-29T23:40:50.229Z,3.97
2022-07-29T23:43:52.164Z,4.40
2022-07-29T23:46:54.101Z,4.70
2022-07-29T23:49:56.759Z,4.88
2022-07-29T23:52:58.672Z,4.60
2022-07-29T23:56:00.650Z,4.72
2022-07-29T23:59:05.995Z,4.93
